createdAt,value
2023-04-20T00:00:24.140Z,99559.61
2023-04-20T00:03:45.762Z,99559.84
2023-04-20T00:06:47.757Z,99563.31
2023-04-20T00:09:49.426Z,99563.30
2023-04-20T00:12:51.242Z,99567.74
2023-04-20T00:15:52.988Z,99562.95
2023-04-20T00:18:54.680Z,99564.16
2023-04-20T00:21:56.205Z,99567.05
2023-04-20T00:24:57.863Z,99565.44
2023-04-20T00:28:00.102Z,99561.59
2023-04-20T00:31:01.990Z,99561.72
2023-04-20T00:34:03.586Z,99557.84
2023-04-20T00:37:05.252Z,99553.73
2023-04-20T00:40:08.195Z,99556.92
2023-04-20T00:43:14.064Z,99559.11
2023-04-20T00:46:16.037Z,99556.04
2023-04-20T00:49:17.814Z,99557.15
2023-04-20T00:52:20.125Z,99564.36
2023-04-20T00:55:22.555Z,99566.88
2023-04-20T00:58:24.204Z,99569.73
2023-04-20T01:01:25.855Z,99570.23
2023-04-20T01:04:27.801Z,99570.19
2023-04-20T01:07:29.890Z,99569.45
2023-04-20T01:10:31.703Z,99564.63
2023-04-20T01:13:33.306Z,99560.44
2023-04-20T01:16:34.983Z,99557.02
2023-04-20T01:19:36.895Z,99554.27
2023-04-20T01:22:48.996Z,99550.80
2023-04-20T01:25:50.617Z,99549.93
2023-04-20T01:28:52.201Z,99550.81
2023-04-20T01:31:54.501Z,99550.83
2023-04-20T01:34:56.003Z,99549.23
2023-04-20T01:37:57.755Z,99543.48
2023-04-20T01:40:59.403Z,99543.84
2023-04-20T01:44:00.915Z,99543.81
2023-04-20T01:47:02.767Z,99541.39
2023-04-20T01:50:04.453Z,99541.05
2023-04-20T01:53:06.206Z,99541.85
2023-04-20T01:56:07.946Z,99543.29
2023-04-20T01:59:09.570Z,99543.73
2023-04-20T02:02:11.139Z,99542.58
2023-04-20T02:05:13.103Z,99543.30
2023-04-20T02:08:14.750Z,99546.95
2023-04-20T02:11:16.541Z,99548.57
2023-04-20T02:14:18.259Z,99550.02
2023-04-20T02:17:19.945Z,99550.75
2023-04-20T02:20:21.865Z,99549.96
2023-04-20T02:23:23.565Z,99550.20
2023-04-20T02:26:25.204Z,99545.20
2023-04-20T02:29:26.942Z,99544.29
2023-04-20T02:32:28.707Z,99541.02
2023-04-20T02:35:30.417Z,99542.78
2023-04-20T02:38:32.066Z,99545.56
2023-04-20T02:41:33.621Z,99544.59
2023-04-20T02:44:35.620Z,99548.54
2023-04-20T02:47:37.217Z,99547.35
2023-04-20T02:50:38.776Z,99547.42
2023-04-20T02:53:40.364Z,99551.79
2023-04-20T02:56:41.917Z,99547.76
2023-04-20T02:59:43.563Z,99548.36
2023-04-20T03:02:45.504Z,99543.84
2023-04-20T03:05:47.378Z,99548.23
2023-04-20T03:08:48.996Z,99541.50
2023-04-20T03:11:50.721Z,99543.70
2023-04-20T03:14:52.362Z,99543.84
2023-04-20T03:17:53.853Z,99541.39
2023-04-20T03:20:55.596Z,99544.27
2023-04-20T03:23:57.421Z,99546.67
2023-04-20T03:26:59.097Z,99547.56
2023-04-20T03:30:00.760Z,99547.63
2023-04-20T03:33:02.431Z,99543.17
2023-04-20T03:36:04.408Z,99549.02
2023-04-20T03:39:06.593Z,99549.52
2023-04-20T03:42:08.290Z,99554.09
2023-04-20T03:45:09.979Z,99558.62
2023-04-20T03:48:11.609Z,99558.66
2023-04-20T03:51:13.179Z,99559.01
2023-04-20T03:54:14.994Z,99560.39
2023-04-20T03:57:16.762Z,99559.43
2023-04-20T04:00:18.969Z,99561.45
2023-04-20T04:03:21.026Z,99561.23
2023-04-20T04:06:23.018Z,99565.20
2023-04-20T04:09:24.973Z,99563.73
2023-04-20T04:12:26.583Z,99564.27
2023-04-20T04:15:28.118Z,99565.39
2023-04-20T04:18:31.360Z,99574.42
2023-04-20T04:21:32.986Z,99580.38
2023-04-20T04:24:34.664Z,99583.69
2023-04-20T04:27:36.548Z,99580.32
2023-04-20T04:30:41.365Z,99582.83
2023-04-20T04:33:43.586Z,99586.72
2023-04-20T04:36:45.288Z,99593.18
2023-04-20T04:39:46.981Z,99592.02
2023-04-20T04:42:48.505Z,99595.06
2023-04-20T04:45:50.338Z,99596.98
2023-04-20T04:48:51.936Z,99597.17
2023-04-20T04:51:53.654Z,99602.49
2023-04-20T04:54:55.450Z,99606.73
2023-04-20T04:57:57.140Z,99607.93
2023-04-20T05:00:58.758Z,99612.50
2023-04-20T05:04:00.828Z,99608.23
2023-04-20T05:07:02.627Z,99612.34
2023-04-20T05:10:05.353Z,99612.64
2023-04-20T05:13:06.942Z,99612.95
2023-04-20T05:16:08.548Z,99619.06
2023-04-20T05:19:10.197Z,99621.79
2023-04-20T05:22:11.950Z,99622.59
2023-04-20T05:25:14.286Z,99622.48
2023-04-20T05:28:16.076Z,99620.91
2023-04-20T05:31:17.719Z,99614.76
2023-04-20T05:34:19.403Z,99616.67
2023-04-20T05:37:21.121Z,99614.63
2023-04-20T05:40:23.024Z,99621.92
2023-04-20T05:43:24.703Z,99619.70
2023-04-20T05:46:26.539Z,99618.27
2023-04-20T05:49:28.455Z,99616.73
2023-04-20T05:52:30.267Z,99615.48
2023-04-20T05:55:32.198Z,99624.48
2023-04-20T05:58:34.438Z,99634.40
2023-04-20T06:01:36.779Z,99641.72
2023-04-20T06:04:38.716Z,99633.45
2023-04-20T06:07:40.695Z,99628.99
2023-04-20T06:10:42.421Z,99632.75
2023-04-20T06:13:44.190Z,99636.92
2023-04-20T06:16:45.859Z,99635.23
2023-04-20T06:19:47.969Z,99633.23
2023-04-20T06:22:49.898Z,99628.40
2023-04-20T06:25:51.649Z,99631.16
2023-04-20T06:28:53.430Z,99631.77
2023-04-20T06:31:55.352Z,99630.20
2023-04-20T06:34:57.239Z,99627.21
2023-04-20T06:37:59.538Z,99631.33
2023-04-20T06:41:01.172Z,99633.71
2023-04-20T06:44:02.775Z,99635.16
2023-04-20T06:47:04.634Z,99633.35
2023-04-20T06:50:07.636Z,99633.66
2023-04-20T06:53:09.265Z,99630.10
2023-04-20T06:56:10.857Z,99634.61
2023-04-20T06:59:12.556Z,99636.82
2023-04-20T07:02:14.413Z,99638.23
2023-04-20T07:05:17.376Z,99639.76
2023-04-20T07:08:19.278Z,99642.33
2023-04-20T07:11:20.880Z,99641.84
2023-04-20T07:14:22.475Z,99645.98
2023-04-20T07:17:28.077Z,99643.55
2023-04-20T07:20:29.756Z,99642.96
2023-04-20T07:23:31.493Z,99643.13
2023-04-20T07:26:33.130Z,99645.59
2023-04-20T07:29:34.801Z,99649.56
2023-04-20T07:32:37.131Z,99651.73
2023-04-20T07:35:38.844Z,99651.29
2023-04-20T07:38:40.495Z,99658.33
2023-04-20T07:41:42.108Z,99662.61
2023-04-20T07:44:43.979Z,99662.97
2023-04-20T07:47:45.714Z,99658.70
2023-04-20T07:50:47.342Z,99655.95
2023-04-20T07:53:49.005Z,99655.29
2023-04-20T07:56:50.649Z,99656.16
2023-04-20T07:59:52.434Z,99655.52
2023-04-20T08:02:54.183Z,99658.09
2023-04-20T08:05:56.122Z,99662.18
2023-04-20T08:08:57.820Z,99664.36
2023-04-20T08:11:59.850Z,99664.33
2023-04-20T08:15:01.515Z,99667.46
2023-04-20T08:18:03.434Z,99670.98
2023-04-20T08:21:05.368Z,99666.70
2023-04-20T08:24:08.183Z,99674.05
2023-04-20T08:27:09.903Z,99673.99
2023-04-20T08:30:12.118Z,99674.89
2023-04-20T08:33:13.949Z,99675.57
2023-04-20T08:36:15.810Z,99678.71
2023-04-20T08:39:21.897Z,99677.79
2023-04-20T08:42:23.604Z,99678.48
2023-04-20T08:45:26.540Z,99674.58
2023-04-20T08:48:34.943Z,99673.30
2023-04-20T08:51:36.606Z,99670.73
2023-04-20T08:54:42.956Z,99669.49
2023-04-20T08:57:48.780Z,99666.75
2023-04-20T09:00:51.369Z,99670.56
2023-04-20T09:03:53.092Z,99666.77
2023-04-20T09:06:56.245Z,99670.41
2023-04-20T09:10:00.338Z,99673.37
2023-04-20T09:13:02.029Z,99674.53
2023-04-20T09:16:11.281Z,99671.05
2023-04-20T09:19:14.067Z,99673.39
2023-04-20T09:22:15.869Z,99673.63
2023-04-20T09:25:18.348Z,99679.61
2023-04-20T09:28:20.274Z,99682.45
2023-04-20T09:31:22.630Z,99685.14
2023-04-20T09:34:24.313Z,99681.03
2023-04-20T09:37:25.923Z,99679.46
2023-04-20T09:40:27.777Z,99676.98
2023-04-20T09:43:29.933Z,99681.91
2023-04-20T09:46:33.713Z,99680.27
2023-04-20T09:49:35.505Z,99682.45
2023-04-20T09:52:37.973Z,99679.09
2023-04-20T09:55:39.759Z,99673.33
2023-04-20T09:58:42.688Z,99674.71
2023-04-20T10:01:44.532Z,99670.67
2023-04-20T10:04:56.384Z,99671.77
2023-04-20T10:08:01.488Z,99674.58
2023-04-20T10:11:03.121Z,99673.38
2023-04-20T10:14:25.380Z,99674.31
2023-04-20T10:17:31.714Z,99673.77
2023-04-20T10:20:34.599Z,99668.24
2023-04-20T10:23:50.440Z,99672.31
2023-04-20T10:26:52.063Z,99674.73
2023-04-20T10:29:53.856Z,99671.56
2023-04-20T10:33:09.507Z,99663.98
2023-04-20T10:36:23.135Z,99666.16
2023-04-20T10:39:24.944Z,99660.71
2023-04-20T10:42:26.853Z,99659.13
2023-04-20T10:45:35.866Z,99659.02
2023-04-20T10:48:37.535Z,99654.37
2023-04-20T10:51:46.963Z,99654.34
2023-04-20T10:54:48.560Z,99653.88
2023-04-20T10:57:51.180Z,99650.52
2023-04-20T11:01:00.582Z,99648.80
2023-04-20T11:04:02.884Z,99650.45
2023-04-20T11:07:06.730Z,99652.38
2023-04-20T11:10:08.577Z,99644.77
2023-04-20T11:13:23.196Z,99639.94
2023-04-20T11:16:30.446Z,99642.27
2023-04-20T11:19:38.463Z,99645.74
2023-04-20T11:22:41.419Z,99641.84
2023-04-20T11:25:53.940Z,99641.39
2023-04-20T11:28:56.482Z,99642.73
2023-04-20T11:31:59.591Z,99640.45
2023-04-20T11:35:07.389Z,99643.76
2023-04-20T11:38:09.387Z,99644.34
2023-04-20T11:41:10.954Z,99643.26
2023-04-20T11:44:12.671Z,99642.13
2023-04-20T11:47:14.379Z,99644.84
2023-04-20T11:50:16.303Z,99642.63
2023-04-20T11:53:18.006Z,99640.11
2023-04-20T11:56:19.648Z,99640.08
2023-04-20T11:59:21.622Z,99638.32
2023-04-20T12:02:23.840Z,99640.74
2023-04-20T12:05:25.717Z,99636.17
2023-04-20T12:08:27.278Z,99638.89
2023-04-20T12:11:29.321Z,99638.79
2023-04-20T12:14:31.038Z,99634.55
2023-04-20T12:17:32.645Z,99630.89
2023-04-20T12:20:34.505Z,99626.44
2023-04-20T12:23:36.114Z,99629.84
2023-04-20T12:26:38.975Z,99627.86
2023-04-20T12:29:40.763Z,99622.98
2023-04-20T12:32:42.502Z,99616.06
2023-04-20T12:35:44.371Z,99616.61
2023-04-20T12:38:46.213Z,99618.81
2023-04-20T12:41:47.912Z,99619.06
2023-04-20T12:44:53.039Z,99620.30
2023-04-20T12:47:56.756Z,99611.97
2023-04-20T12:50:59.684Z,99604.36
2023-04-20T12:54:01.306Z,99605.92
2023-04-20T12:57:03.071Z,99606.64
2023-04-20T13:00:06.211Z,99604.22
2023-04-20T13:03:07.932Z,99605.92
2023-04-20T13:06:13.635Z,99599.99
2023-04-20T13:09:15.969Z,99595.35
2023-04-20T13:12:17.631Z,99596.48
2023-04-20T13:15:31.907Z,99591.59
2023-04-20T13:18:39.667Z,99594.80
2023-04-20T13:21:41.703Z,99593.73
2023-04-20T13:24:43.483Z,99595.70
2023-04-20T13:27:45.135Z,99593.32
2023-04-20T13:30:47.738Z,99593.81
2023-04-20T13:33:49.408Z,99597.29
2023-04-20T13:36:51.117Z,99591.38
2023-04-20T13:39:52.845Z,99587.33
2023-04-20T13:42:54.452Z,99588.58
2023-04-20T13:45:56.186Z,99590.48
2023-04-20T13:48:57.886Z,99589.14
2023-04-20T13:51:59.619Z,99582.70
2023-04-20T13:55:01.360Z,99583.11
2023-04-20T13:58:02.998Z,99575.88
2023-04-20T14:01:09.048Z,99575.67
2023-04-20T14:04:10.935Z,99577.35
2023-04-20T14:07:12.589Z,99574.87
2023-04-20T14:10:14.381Z,99572.23
2023-04-20T14:13:16.288Z,99570.34
2023-04-20T14:16:18.117Z,99566.46
2023-04-20T14:19:19.801Z,99570.83
2023-04-20T14:22:21.483Z,99575.95
2023-04-20T14:25:23.178Z,99576.94
2023-04-20T14:28:24.866Z,99568.21
2023-04-20T14:31:26.504Z,99570.75
2023-04-20T14:34:28.227Z,99572.52
2023-04-20T14:37:30.306Z,99566.18
2023-04-20T14:40:32.211Z,99570.49
2023-04-20T14:43:33.878Z,99570.84
2023-04-20T14:46:35.676Z,99566.64
2023-04-20T14:49:37.471Z,99567.33
2023-04-20T14:52:39.059Z,99565.85
2023-04-20T14:55:40.701Z,99567.09
2023-04-20T14:58:42.297Z,99567.08
2023-04-20T15:01:54.922Z,99566.18
2023-04-20T15:05:05.263Z,99562.81
2023-04-20T15:08:10.615Z,99563.79
2023-04-20T15:11:12.238Z,99564.31
2023-04-20T15:14:13.811Z,99567.36
2023-04-20T15:17:15.513Z,99558.01
2023-04-20T15:20:17.380Z,99557.89
2023-04-20T15:23:19.066Z,99560.39
2023-04-20T15:26:20.740Z,99558.65
2023-04-20T15:29:22.622Z,99558.73
2023-04-20T15:32:25.453Z,99555.28
2023-04-20T15:35:27.409Z,99557.40
2023-04-20T15:38:29.059Z,99555.63
2023-04-20T15:41:30.667Z,99551.94
2023-04-20T15:44:32.795Z,99551.23
2023-04-20T15:47:34.536Z,99552.73
2023-04-20T15:50:36.375Z,99550.23
2023-04-20T15:53:38.339Z,99550.52
2023-04-20T15:56:39.996Z,99550.42
2023-04-20T15:59:41.662Z,99548.65
2023-04-20T16:02:43.409Z,99544.46
2023-04-20T16:05:45.181Z,99543.92
2023-04-20T16:08:48.463Z,99544.11
2023-04-20T16:11:50.523Z,99539.14
2023-04-20T16:14:53.850Z,99538.65
2023-04-20T16:17:55.855Z,99537.79
2023-04-20T16:20:57.863Z,99538.98
2023-04-20T16:23:59.546Z,99539.04
2023-04-20T16:27:01.243Z,99547.52
2023-04-20T16:30:03.325Z,99545.00
2023-04-20T16:33:05.071Z,99547.85
2023-04-20T16:36:07.033Z,99545.97
2023-04-20T16:39:08.638Z,99551.79
2023-04-20T16:42:10.376Z,99555.56
2023-04-20T16:45:12.626Z,99554.73
2023-04-20T16:48:14.238Z,99553.23
2023-04-20T16:51:15.891Z,99552.98
2023-04-20T16:54:17.680Z,99554.68
2023-04-20T16:57:19.727Z,99553.94
2023-04-20T17:00:21.612Z,99555.83
2023-04-20T17:03:23.547Z,99553.73
2023-04-20T17:06:25.734Z,99552.02
2023-04-20T17:09:27.788Z,99553.08
2023-04-20T17:12:29.468Z,99554.16
2023-04-20T17:15:31.296Z,99554.32
2023-04-20T17:18:33.221Z,99551.20
2023-04-20T17:21:34.811Z,99548.65
2023-04-20T17:24:36.423Z,99548.55
2023-04-20T17:27:38.198Z,99555.23
2023-04-20T17:30:40.604Z,99558.60
2023-04-20T17:33:42.333Z,99558.89
2023-04-20T17:36:44.013Z,99558.86
2023-04-20T17:39:45.915Z,99565.10
2023-04-20T17:42:47.578Z,99567.13
2023-04-20T17:45:49.855Z,99568.84
2023-04-20T17:48:51.529Z,99573.18
2023-04-20T17:51:53.164Z,99571.59
2023-04-20T17:54:54.849Z,99570.42
2023-04-20T17:57:56.751Z,99572.84
2023-04-20T18:00:58.482Z,99572.25
2023-04-20T18:04:00.878Z,99568.92
2023-04-20T18:07:03.798Z,99567.11
2023-04-20T18:10:06.161Z,99564.63
2023-04-20T18:13:07.908Z,99568.55
2023-04-20T18:16:09.982Z,99575.20
2023-04-20T18:19:11.790Z,99577.92
2023-04-20T18:22:13.450Z,99579.10
2023-04-20T18:25:15.144Z,99578.29
2023-04-20T18:28:16.973Z,99579.17
2023-04-20T18:31:18.882Z,99581.70
2023-04-20T18:34:20.923Z,99581.88
2023-04-20T18:37:22.741Z,99581.28
2023-04-20T18:40:24.628Z,99583.77
2023-04-20T18:43:26.258Z,99580.67
2023-04-20T18:46:28.043Z,99580.70
2023-04-20T18:49:29.738Z,99580.50
2023-04-20T18:52:34.773Z,99578.97
2023-04-20T18:55:36.940Z,99577.80
2023-04-20T18:58:38.959Z,99574.97
2023-04-20T19:01:40.767Z,99581.94
2023-04-20T19:04:42.810Z,99581.54
2023-04-20T19:07:44.456Z,99580.88
2023-04-20T19:10:46.102Z,99584.25
2023-04-20T19:13:47.746Z,99586.20
2023-04-20T19:16:49.450Z,99583.15
2023-04-20T19:19:51.367Z,99582.64
2023-04-20T19:22:53.033Z,99581.38
2023-04-20T19:25:54.771Z,99583.80
2023-04-20T19:28:58.920Z,99579.90
2023-04-20T19:32:00.746Z,99575.30
2023-04-20T19:35:02.545Z,99575.05
2023-04-20T19:38:04.354Z,99575.70
2023-04-20T19:41:06.371Z,99575.11
2023-04-20T19:44:08.065Z,99571.14
2023-04-20T19:47:09.991Z,99571.80
2023-04-20T19:50:12.167Z,99575.99
2023-04-20T19:53:14.004Z,99573.94
2023-04-20T19:56:15.711Z,99577.37
2023-04-20T19:59:17.683Z,99573.85
2023-04-20T20:02:19.686Z,99574.52
2023-04-20T20:05:21.912Z,99576.69
2023-04-20T20:08:23.677Z,99577.42
2023-04-20T20:11:25.351Z,99580.98
2023-04-20T20:14:27.078Z,99580.56
2023-04-20T20:17:28.715Z,99577.48
2023-04-20T20:20:30.570Z,99579.48
2023-04-20T20:23:32.264Z,99573.02
2023-04-20T20:26:34.058Z,99572.41
2023-04-20T20:29:35.723Z,99569.05
2023-04-20T20:32:37.398Z,99572.05
2023-04-20T20:35:39.088Z,99570.79
2023-04-20T20:38:40.798Z,99567.33
2023-04-20T20:41:42.544Z,99565.77
2023-04-20T20:44:44.476Z,99571.65
2023-04-20T20:47:46.510Z,99571.00
2023-04-20T20:50:48.331Z,99569.61
2023-04-20T20:53:49.978Z,99569.56
2023-04-20T20:56:51.694Z,99567.11
2023-04-20T20:59:53.659Z,99566.34
2023-04-20T21:02:55.714Z,99569.45
2023-04-20T21:05:57.454Z,99568.55
2023-04-20T21:08:59.381Z,99571.07
2023-04-20T21:12:01.044Z,99572.84
2023-04-20T21:15:03.023Z,99572.56
2023-04-20T21:18:04.715Z,99572.64
2023-04-20T21:21:06.525Z,99570.27
2023-04-20T21:24:08.257Z,99573.49
2023-04-20T21:27:09.880Z,99574.01
2023-04-20T21:30:12.201Z,99575.40
2023-04-20T21:33:13.996Z,99574.60
2023-04-20T21:36:16.841Z,99575.08
2023-04-20T21:39:18.854Z,99576.17
2023-04-20T21:42:20.841Z,99578.16
2023-04-20T21:45:22.451Z,99578.05
2023-04-20T21:48:24.047Z,99578.35
2023-04-20T21:51:25.692Z,99572.59
2023-04-20T21:54:27.364Z,99572.94
2023-04-20T21:57:29.082Z,99574.39
2023-04-20T22:00:30.797Z,99575.11
2023-04-20T22:03:37.209Z,99574.34
2023-04-20T22:06:39.556Z,99571.37
2023-04-20T22:09:41.058Z,99573.92
2023-04-20T22:12:42.788Z,99569.66
2023-04-20T22:15:44.534Z,99569.14
2023-04-20T22:18:46.210Z,99569.64
2023-04-20T22:21:47.856Z,99574.42
2023-04-20T22:24:53.700Z,99570.14
2023-04-20T22:27:55.656Z,99566.61
2023-04-20T22:30:57.385Z,99570.27
2023-04-20T22:33:59.050Z,99568.45
2023-04-20T22:37:00.688Z,99568.45
2023-04-20T22:40:02.761Z,99573.83
2023-04-20T22:43:04.441Z,99576.41
2023-04-20T22:46:06.080Z,99579.54
2023-04-20T22:49:07.637Z,99582.52
2023-04-20T22:52:09.354Z,99584.17
2023-04-20T22:55:11.302Z,99580.75
2023-04-20T22:58:12.875Z,99581.66
2023-04-20T23:01:14.585Z,99584.44
2023-04-20T23:04:16.751Z,99582.78
2023-04-20T23:07:18.636Z,99591.92
2023-04-20T23:10:20.421Z,99588.86
2023-04-20T23:13:22.202Z,99593.60
2023-04-20T23:16:24.332Z,99599.14
2023-04-20T23:19:26.002Z,99602.36
2023-04-20T23:22:27.681Z,99605.56
2023-04-20T23:25:29.435Z,99605.55
2023-04-20T23:28:31.014Z,99604.25
2023-04-20T23:31:32.698Z,99603.56
2023-04-20T23:34:34.367Z,99601.27
2023-04-20T23:37:36.022Z,99604.83
2023-04-20T23:40:38.890Z,99599.27
2023-04-20T23:43:40.747Z,99594.60
2023-04-20T23:46:42.629Z,99594.36
2023-04-20T23:49:44.380Z,99591.91
2023-04-20T23:52:46.035Z,99587.61
2023-04-20T23:55:47.745Z,99580.83
2023-04-20T23:58:49.347Z,99576.41
